sensor_id;sensor_type;location;lat;lon;timestamp;temperature;humidity
21622;DHT22;10973;46.706;12.340;2022-09-14T00:01:30;14.80;99.90
21622;DHT22;10973;46.706;12.340;2022-09-14T00:04:02;14.80;99.90
21622;DHT22;10973;46.706;12.340;2022-09-14T00:06:32;14.80;99.90
21622;DHT22;10973;46.706;12.340;2022-09-14T00:09:00;14.70;99.90
21622;DHT22;10973;46.706;12.340;2022-09-14T00:11:30;14.80;99.90
21622;DHT22;10973;46.706;12.340;2022-09-14T00:13:59;14.70;99.90
21622;DHT22;10973;46.706;12.340;2022-09-14T00:16:30;14.70;99.90
21622;DHT22;10973;46.706;12.340;2022-09-14T00:19:02;14.60;99.90
21622;DHT22;10973;46.706;12.340;2022-09-14T00:21:40;14.60;99.90
21622;DHT22;10973;46.706;12.340;2022-09-14T00:24:09;14.70;99.90
21622;DHT22;10973;46.706;12.340;2022-09-14T00:26:37;14.70;99.90
21622;DHT22;10973;46.706;12.340;2022-09-14T00:29:05;14.60;99.90
21622;DHT22;10973;46.706;12.340;2022-09-14T00:31:34;14.60;99.90
21622;DHT22;10973;46.706;12.340;2022-09-14T00:34:04;14.60;99.90
21622;DHT22;10973;46.706;12.340;2022-09-14T00:36:39;14.60;99.90
21622;DHT22;10973;46.706;12.340;2022-09-14T00:39:08;14.60;99.90
21622;DHT22;10973;46.706;12.340;2022-09-14T00:41:38;14.60;99.90
21622;DHT22;10973;46.706;12.340;2022-09-14T00:46:42;14.60;99.90
21622;DHT22;10973;46.706;12.340;2022-09-14T00:49:25;14.70;99.90
21622;DHT22;10973;46.706;12.340;2022-09-14T00:52:08;14.60;99.90
21622;DHT22;10973;46.706;12.340;2022-09-14T00:54:48;14.60;99.90
21622;DHT22;10973;46.706;12.340;2022-09-14T00:57:19;14.50;99.90
21622;DHT22;10973;46.706;12.340;2022-09-14T00:59:49;14.60;99.90
21622;DHT22;10973;46.706;12.340;2022-09-14T01:02:19;14.60;99.90
21622;DHT22;10973;46.706;12.340;2022-09-14T01:04:48;14.60;99.90
21622;DHT22;10973;46.706;12.340;2022-09-14T01:16:50;14.70;99.90
21622;DHT22;10973;46.706;12.340;2022-09-14T01:22:23;14.90;99.90
21622;DHT22;10973;46.706;12.340;2022-09-14T01:31:36;14.80;99.90
21622;DHT22;10973;46.706;12.340;2022-09-14T01:37:35;14.80;99.90
21622;DHT22;10973;46.706;12.340;2022-09-14T01:40:24;14.70;99.90
21622;DHT22;10973;46.706;12.340;2022-09-14T01:45:52;14.70;99.90
21622;DHT22;10973;46.706;12.340;2022-09-14T01:48:29;14.70;99.90
21622;DHT22;10973;46.706;12.340;2022-09-14T01:51:03;14.70;99.90
21622;DHT22;10973;46.706;12.340;2022-09-14T01:53:46;14.80;99.90
21622;DHT22;10973;46.706;12.340;2022-09-14T01:56:27;14.80;99.90
21622;DHT22;10973;46.706;12.340;2022-09-14T01:59:33;14.70;99.90
21622;DHT22;10973;46.706;12.340;2022-09-14T02:02:11;14.70;99.90
21622;DHT22;10973;46.706;12.340;2022-09-14T02:04:51;14.70;99.90
21622;DHT22;10973;46.706;12.340;2022-09-14T02:07:35;14.70;99.90
21622;DHT22;10973;46.706;12.340;2022-09-14T02:10:05;14.80;99.90
21622;DHT22;10973;46.706;12.340;2022-09-14T02:12:38;14.70;99.90
21622;DHT22;10973;46.706;12.340;2022-09-14T02:15:08;14.80;99.90
21622;DHT22;10973;46.706;12.340;2022-09-14T02:17:38;14.70;99.90
21622;DHT22;10973;46.706;12.340;2022-09-14T02:20:10;14.70;99.90
21622;DHT22;10973;46.706;12.340;2022-09-14T02:22:45;14.80;99.90
21622;DHT22;10973;46.706;12.340;2022-09-14T02:25:12;14.80;99.90
21622;DHT22;10973;46.706;12.340;2022-09-14T02:27:39;14.80;99.90
21622;DHT22;10973;46.706;12.340;2022-09-14T02:30:07;14.90;99.90
21622;DHT22;10973;46.706;12.340;2022-09-14T02:33:01;15.00;99.90
21622;DHT22;10973;46.706;12.340;2022-09-14T02:35:35;15.00;99.90
21622;DHT22;10973;46.706;12.340;2022-09-14T02:41:06;15.10;99.90
21622;DHT22;10973;46.706;12.340;2022-09-14T02:46:49;15.10;99.90
21622;DHT22;10973;46.706;12.340;2022-09-14T02:52:17;15.20;99.90
21622;DHT22;10973;46.706;12.340;2022-09-14T02:57:31;15.30;99.90
21622;DHT22;10973;46.706;12.340;2022-09-14T02:59:59;15.30;99.90
21622;DHT22;10973;46.706;12.340;2022-09-14T03:02:26;15.30;99.90
21622;DHT22;10973;46.706;12.340;2022-09-14T03:04:53;15.30;99.90
21622;DHT22;10973;46.706;12.340;2022-09-14T03:07:20;15.30;99.90
21622;DHT22;10973;46.706;12.340;2022-09-14T03:09:48;15.30;99.90
21622;DHT22;10973;46.706;12.340;2022-09-14T03:12:15;15.30;99.90
21622;DHT22;10973;46.706;12.340;2022-09-14T03:14:42;15.30;99.90
21622;DHT22;10973;46.706;12.340;2022-09-14T03:17:09;15.30;99.90
21622;DHT22;10973;46.706;12.340;2022-09-14T03:19:36;15.30;99.90
21622;DHT22;10973;46.706;12.340;2022-09-14T03:22:03;15.30;99.90
21622;DHT22;10973;46.706;12.340;2022-09-14T03:24:31;15.30;99.90
21622;DHT22;10973;46.706;12.340;2022-09-14T03:26:58;15.30;99.90
21622;DHT22;10973;46.706;12.340;2022-09-14T03:29:25;15.40;99.90
21622;DHT22;10973;46.706;12.340;2022-09-14T03:31:52;15.40;99.90
21622;DHT22;10973;46.706;12.340;2022-09-14T03:34:19;15.40;99.90
21622;DHT22;10973;46.706;12.340;2022-09-14T03:36:47;15.40;99.90
21622;DHT22;10973;46.706;12.340;2022-09-14T03:39:14;15.40;99.90
21622;DHT22;10973;46.706;12.340;2022-09-14T03:41:41;15.40;99.90
21622;DHT22;10973;46.706;12.340;2022-09-14T03:44:09;15.40;99.90
21622;DHT22;10973;46.706;12.340;2022-09-14T03:46:36;15.40;99.90
21622;DHT22;10973;46.706;12.340;2022-09-14T03:49:04;15.40;99.90
21622;DHT22;10973;46.706;12.340;2022-09-14T03:51:33;15.40;99.90
21622;DHT22;10973;46.706;12.340;2022-09-14T03:54:00;14.00;99.90
21622;DHT22;10973;46.706;12.340;2022-09-14T03:56:27;15.40;99.90
21622;DHT22;10973;46.706;12.340;2022-09-14T03:58:55;15.40;99.90
21622;DHT22;10973;46.706;12.340;2022-09-14T04:01:24;15.40;99.90
21622;DHT22;10973;46.706;12.340;2022-09-14T04:03:51;15.40;99.90
21622;DHT22;10973;46.706;12.340;2022-09-14T04:06:18;15.40;99.90
21622;DHT22;10973;46.706;12.340;2022-09-14T04:08:46;15.40;99.90
21622;DHT22;10973;46.706;12.340;2022-09-14T04:11:19;15.40;99.90
21622;DHT22;10973;46.706;12.340;2022-09-14T04:13:51;15.40;99.90
21622;DHT22;10973;46.706;12.340;2022-09-14T04:16:19;15.40;99.90
21622;DHT22;10973;46.706;12.340;2022-09-14T04:18:48;15.40;99.90
21622;DHT22;10973;46.706;12.340;2022-09-14T04:21:17;15.30;99.90
21622;DHT22;10973;46.706;12.340;2022-09-14T04:23:47;15.30;99.90
21622;DHT22;10973;46.706;12.340;2022-09-14T04:26:34;15.30;99.90
21622;DHT22;10973;46.706;12.340;2022-09-14T04:29:02;15.30;99.90
21622;DHT22;10973;46.706;12.340;2022-09-14T04:31:30;15.20;99.90
21622;DHT22;10973;46.706;12.340;2022-09-14T04:33:58;15.30;99.90
21622;DHT22;10973;46.706;12.340;2022-09-14T04:36:27;15.30;99.90
21622;DHT22;10973;46.706;12.340;2022-09-14T04:38:57;15.10;99.90
21622;DHT22;10973;46.706;12.340;2022-09-14T04:41:28;15.10;99.90
21622;DHT22;10973;46.706;12.340;2022-09-14T04:43:56;15.10;99.90
21622;DHT22;10973;46.706;12.340;2022-09-14T04:46:29;15.10;99.90
21622;DHT22;10973;46.706;12.340;2022-09-14T04:48:58;15.10;99.90
21622;DHT22;10973;46.706;12.340;2022-09-14T04:51:28;15.10;99.90
21622;DHT22;10973;46.706;12.340;2022-09-14T04:53:57;15.00;99.90
21622;DHT22;10973;46.706;12.340;2022-09-14T04:56:35;15.00;99.90
21622;DHT22;10973;46.706;12.340;2022-09-14T04:59:05;14.90;99.90
21622;DHT22;10973;46.706;12.340;2022-09-14T05:01:35;14.90;99.90
21622;DHT22;10973;46.706;12.340;2022-09-14T05:04:04;14.90;99.90
21622;DHT22;10973;46.706;12.340;2022-09-14T05:06:34;14.90;99.90
21622;DHT22;10973;46.706;12.340;2022-09-14T05:09:05;15.00;99.90
21622;DHT22;10973;46.706;12.340;2022-09-14T05:11:36;14.90;99.90
21622;DHT22;10973;46.706;12.340;2022-09-14T05:14:03;14.90;99.90
21622;DHT22;10973;46.706;12.340;2022-09-14T05:16:34;14.90;99.90
21622;DHT22;10973;46.706;12.340;2022-09-14T05:19:09;14.90;99.90
21622;DHT22;10973;46.706;12.340;2022-09-14T05:21:38;15.00;99.90
21622;DHT22;10973;46.706;12.340;2022-09-14T05:24:10;15.00;99.90
21622;DHT22;10973;46.706;12.340;2022-09-14T05:26:46;15.30;99.90
21622;DHT22;10973;46.706;12.340;2022-09-14T05:29:16;14.90;99.90
21622;DHT22;10973;46.706;12.340;2022-09-14T05:31:45;15.00;99.90
21622;DHT22;10973;46.706;12.340;2022-09-14T05:34:13;14.90;99.90
21622;DHT22;10973;46.706;12.340;2022-09-14T05:36:40;14.90;99.90
21622;DHT22;10973;46.706;12.340;2022-09-14T05:39:08;14.90;99.90
21622;DHT22;10973;46.706;12.340;2022-09-14T05:41:36;14.90;99.90
21622;DHT22;10973;46.706;12.340;2022-09-14T05:44:04;14.90;99.90
21622;DHT22;10973;46.706;12.340;2022-09-14T05:46:32;14.90;99.90
21622;DHT22;10973;46.706;12.340;2022-09-14T05:49:00;14.90;99.90
21622;DHT22;10973;46.706;12.340;2022-09-14T05:51:27;14.90;99.90
21622;DHT22;10973;46.706;12.340;2022-09-14T05:53:56;15.00;99.90
21622;DHT22;10973;46.706;12.340;2022-09-14T05:56:28;15.00;99.90
21622;DHT22;10973;46.706;12.340;2022-09-14T05:58:56;14.90;99.90
21622;DHT22;10973;46.706;12.340;2022-09-14T06:01:26;15.00;99.90
21622;DHT22;10973;46.706;12.340;2022-09-14T06:03:56;15.00;99.90
21622;DHT22;10973;46.706;12.340;2022-09-14T06:06:25;14.90;99.90
21622;DHT22;10973;46.706;12.340;2022-09-14T06:08:52;15.00;99.90
21622;DHT22;10973;46.706;12.340;2022-09-14T06:11:25;15.10;99.90
21622;DHT22;10973;46.706;12.340;2022-09-14T06:13:56;15.10;99.90
21622;DHT22;10973;46.706;12.340;2022-09-14T06:16:25;15.10;99.90
21622;DHT22;10973;46.706;12.340;2022-09-14T06:18:54;15.10;99.90
21622;DHT22;10973;46.706;12.340;2022-09-14T06:21:25;15.10;99.90
21622;DHT22;10973;46.706;12.340;2022-09-14T06:23:55;15.10;99.90
21622;DHT22;10973;46.706;12.340;2022-09-14T06:26:22;15.20;99.90
21622;DHT22;10973;46.706;12.340;2022-09-14T06:28:50;15.20;99.90
21622;DHT22;10973;46.706;12.340;2022-09-14T06:31:18;15.10;99.90
21622;DHT22;10973;46.706;12.340;2022-09-14T06:33:46;15.20;99.90
21622;DHT22;10973;46.706;12.340;2022-09-14T06:36:17;15.30;99.90
21622;DHT22;10973;46.706;12.340;2022-09-14T06:38:47;15.20;99.90
21622;DHT22;10973;46.706;12.340;2022-09-14T06:41:18;15.20;99.90
21622;DHT22;10973;46.706;12.340;2022-09-14T06:43:48;15.20;99.90
21622;DHT22;10973;46.706;12.340;2022-09-14T06:46:21;15.20;99.90
21622;DHT22;10973;46.706;12.340;2022-09-14T06:48:57;15.20;99.90
21622;DHT22;10973;46.706;12.340;2022-09-14T06:51:30;15.30;99.90
21622;DHT22;10973;46.706;12.340;2022-09-14T06:54:00;15.30;99.90
21622;DHT22;10973;46.706;12.340;2022-09-14T06:56:30;15.40;99.90
21622;DHT22;10973;46.706;12.340;2022-09-14T06:58:59;15.40;99.90
21622;DHT22;10973;46.706;12.340;2022-09-14T07:01:27;15.50;99.90
21622;DHT22;10973;46.706;12.340;2022-09-14T07:03:55;15.40;99.90
21622;DHT22;10973;46.706;12.340;2022-09-14T07:06:25;15.50;99.90
21622;DHT22;10973;46.706;12.340;2022-09-14T07:08:54;15.50;99.90
21622;DHT22;10973;46.706;12.340;2022-09-14T07:11:25;15.50;99.90
21622;DHT22;10973;46.706;12.340;2022-09-14T07:13:54;15.60;99.90
21622;DHT22;10973;46.706;12.340;2022-09-14T07:16:22;15.60;99.90
21622;DHT22;10973;46.706;12.340;2022-09-14T07:18:52;15.70;99.90
21622;DHT22;10973;46.706;12.340;2022-09-14T07:21:20;15.70;99.90
21622;DHT22;10973;46.706;12.340;2022-09-14T07:23:48;15.70;99.90
21622;DHT22;10973;46.706;12.340;2022-09-14T07:26:18;15.80;99.90
21622;DHT22;10973;46.706;12.340;2022-09-14T07:28:53;15.80;99.90
21622;DHT22;10973;46.706;12.340;2022-09-14T07:31:35;15.80;99.90
21622;DHT22;10973;46.706;12.340;2022-09-14T07:34:13;15.90;99.90
21622;DHT22;10973;46.706;12.340;2022-09-14T07:36:41;15.90;99.90
21622;DHT22;10973;46.706;12.340;2022-09-14T07:39:11;16.00;99.90
21622;DHT22;10973;46.706;12.340;2022-09-14T07:41:40;16.00;99.90
21622;DHT22;10973;46.706;12.340;2022-09-14T07:44:11;16.10;99.90
21622;DHT22;10973;46.706;12.340;2022-09-14T07:46:41;16.20;99.90
21622;DHT22;10973;46.706;12.340;2022-09-14T07:49:10;16.30;99.90
21622;DHT22;10973;46.706;12.340;2022-09-14T07:51:39;16.30;99.90
21622;DHT22;10973;46.706;12.340;2022-09-14T07:54:08;16.40;99.90
21622;DHT22;10973;46.706;12.340;2022-09-14T07:56:38;16.50;99.90
21622;DHT22;10973;46.706;12.340;2022-09-14T07:59:06;16.50;99.90
21622;DHT22;10973;46.706;12.340;2022-09-14T08:01:53;16.60;99.90
21622;DHT22;10973;46.706;12.340;2022-09-14T08:04:20;16.70;99.90
21622;DHT22;10973;46.706;12.340;2022-09-14T08:06:48;16.70;99.90
21622;DHT22;10973;46.706;12.340;2022-09-14T08:09:15;16.80;99.90
21622;DHT22;10973;46.706;12.340;2022-09-14T08:11:42;16.80;99.90
21622;DHT22;10973;46.706;12.340;2022-09-14T08:14:10;16.80;99.90
21622;DHT22;10973;46.706;12.340;2022-09-14T08:16:39;16.80;99.90
21622;DHT22;10973;46.706;12.340;2022-09-14T08:19:11;16.80;99.90
21622;DHT22;10973;46.706;12.340;2022-09-14T08:21:40;16.70;99.90
21622;DHT22;10973;46.706;12.340;2022-09-14T08:24:15;16.80;99.90
21622;DHT22;10973;46.706;12.340;2022-09-14T08:26:45;16.70;99.90
21622;DHT22;10973;46.706;12.340;2022-09-14T08:29:15;16.80;99.90
21622;DHT22;10973;46.706;12.340;2022-09-14T08:31:44;17.00;99.90
21622;DHT22;10973;46.706;12.340;2022-09-14T08:34:15;16.80;99.90
21622;DHT22;10973;46.706;12.340;2022-09-14T08:36:44;16.90;99.90
21622;DHT22;10973;46.706;12.340;2022-09-14T08:39:14;16.90;99.90
21622;DHT22;10973;46.706;12.340;2022-09-14T08:47:27;17.10;99.90
21622;DHT22;10973;46.706;12.340;2022-09-14T08:50:21;17.10;99.90
21622;DHT22;10973;46.706;12.340;2022-09-14T08:52:52;17.20;99.90
21622;DHT22;10973;46.706;12.340;2022-09-14T09:14:53;17.50;99.90
21622;DHT22;10973;46.706;12.340;2022-09-14T09:17:28;17.60;99.90
21622;DHT22;10973;46.706;12.340;2022-09-14T09:23:16;17.70;99.90
21622;DHT22;10973;46.706;12.340;2022-09-14T09:25:58;17.80;99.90
21622;DHT22;10973;46.706;12.340;2022-09-14T09:35:58;18.10;99.90
21622;DHT22;10973;46.706;12.340;2022-09-14T09:38:27;18.20;99.90
21622;DHT22;10973;46.706;12.340;2022-09-14T09:41:07;18.20;99.90
21622;DHT22;10973;46.706;12.340;2022-09-14T09:44:00;18.30;99.90
21622;DHT22;10973;46.706;12.340;2022-09-14T09:46:44;18.40;99.90
21622;DHT22;10973;46.706;12.340;2022-09-14T09:49:23;18.40;99.90
21622;DHT22;10973;46.706;12.340;2022-09-14T09:51:51;18.40;99.90
21622;DHT22;10973;46.706;12.340;2022-09-14T09:54:28;18.50;99.90
21622;DHT22;10973;46.706;12.340;2022-09-14T10:07:58;19.10;99.90
21622;DHT22;10973;46.706;12.340;2022-09-14T10:13:03;19.10;99.90
21622;DHT22;10973;46.706;12.340;2022-09-14T10:15:33;19.20;99.90
21622;DHT22;10973;46.706;12.340;2022-09-14T10:28:45;19.70;99.90
21622;DHT22;10973;46.706;12.340;2022-09-14T10:33:54;21.00;99.90
21622;DHT22;10973;46.706;12.340;2022-09-14T10:42:12;22.60;99.90
21622;DHT22;10973;46.706;12.340;2022-09-14T10:44:48;22.90;99.90
21622;DHT22;10973;46.706;12.340;2022-09-14T10:48:10;23.00;99.90
21622;DHT22;10973;46.706;12.340;2022-09-14T10:51:01;23.10;99.90
21622;DHT22;10973;46.706;12.340;2022-09-14T10:53:48;23.40;99.90
21622;DHT22;10973;46.706;12.340;2022-09-14T10:56:47;23.50;99.90
21622;DHT22;10973;46.706;12.340;2022-09-14T11:05:42;22.50;99.90
21622;DHT22;10973;46.706;12.340;2022-09-14T11:09:00;22.50;99.90
21622;DHT22;10973;46.706;12.340;2022-09-14T11:11:43;22.10;99.90
21622;DHT22;10973;46.706;12.340;2022-09-14T11:17:58;21.40;99.90
21622;DHT22;10973;46.706;12.340;2022-09-14T11:26:17;22.30;99.90
21622;DHT22;10973;46.706;12.340;2022-09-14T11:29:17;22.30;99.90
21622;DHT22;10973;46.706;12.340;2022-09-14T11:31:52;21.90;99.90
21622;DHT22;10973;46.706;12.340;2022-09-14T11:35:12;21.50;99.90
21622;DHT22;10973;46.706;12.340;2022-09-14T11:49:33;20.10;99.90
21622;DHT22;10973;46.706;12.340;2022-09-14T11:52:23;20.10;99.90
21622;DHT22;10973;46.706;12.340;2022-09-14T11:54:53;20.20;99.90
21622;DHT22;10973;46.706;12.340;2022-09-14T11:57:32;20.60;99.90
21622;DHT22;10973;46.706;12.340;2022-09-14T12:00:02;21.00;99.90
21622;DHT22;10973;46.706;12.340;2022-09-14T12:15:16;22.00;99.90
21622;DHT22;10973;46.706;12.340;2022-09-14T12:20:34;22.10;99.90
21622;DHT22;10973;46.706;12.340;2022-09-14T12:25:55;21.70;99.90
21622;DHT22;10973;46.706;12.340;2022-09-14T12:36:07;21.60;99.90
21622;DHT22;10973;46.706;12.340;2022-09-14T12:46:10;20.90;99.90
21622;DHT22;10973;46.706;12.340;2022-09-14T12:48:59;20.70;99.90
21622;DHT22;10973;46.706;12.340;2022-09-14T13:02:44;20.60;99.90
21622;DHT22;10973;46.706;12.340;2022-09-14T13:05:23;20.70;99.90
21622;DHT22;10973;46.706;12.340;2022-09-14T13:07:54;20.60;99.90
21622;DHT22;10973;46.706;12.340;2022-09-14T13:10:32;20.50;99.90
21622;DHT22;10973;46.706;12.340;2022-09-14T13:13:05;20.50;99.90
21622;DHT22;10973;46.706;12.340;2022-09-14T13:15:53;20.40;99.90
21622;DHT22;10973;46.706;12.340;2022-09-14T13:18:26;20.40;99.90
21622;DHT22;10973;46.706;12.340;2022-09-14T13:21:00;20.30;99.90
21622;DHT22;10973;46.706;12.340;2022-09-14T13:23:39;20.30;99.90
21622;DHT22;10973;46.706;12.340;2022-09-14T13:26:16;20.30;99.90
21622;DHT22;10973;46.706;12.340;2022-09-14T13:28:57;20.30;99.90
21622;DHT22;10973;46.706;12.340;2022-09-14T13:31:33;20.40;99.90
21622;DHT22;10973;46.706;12.340;2022-09-14T13:34:03;20.40;99.90
21622;DHT22;10973;46.706;12.340;2022-09-14T13:36:35;20.40;99.90
21622;DHT22;10973;46.706;12.340;2022-09-14T13:39:21;20.40;99.90
21622;DHT22;10973;46.706;12.340;2022-09-14T13:41:52;20.30;99.90
21622;DHT22;10973;46.706;12.340;2022-09-14T13:44:42;20.20;99.90
21622;DHT22;10973;46.706;12.340;2022-09-14T13:47:12;20.30;99.90
21622;DHT22;10973;46.706;12.340;2022-09-14T13:49:43;20.20;99.90
21622;DHT22;10973;46.706;12.340;2022-09-14T13:55:21;20.10;99.90
21622;DHT22;10973;46.706;12.340;2022-09-14T14:09:05;19.70;99.90
21622;DHT22;10973;46.706;12.340;2022-09-14T14:11:43;19.60;99.90
21622;DHT22;10973;46.706;12.340;2022-09-14T14:17:22;19.40;99.90
21622;DHT22;10973;46.706;12.340;2022-09-14T14:19:57;19.40;99.90
21622;DHT22;10973;46.706;12.340;2022-09-14T14:22:32;19.40;99.90
21622;DHT22;10973;46.706;12.340;2022-09-14T14:25:17;19.30;99.90
21622;DHT22;10973;46.706;12.340;2022-09-14T14:27:47;19.30;99.90
21622;DHT22;10973;46.706;12.340;2022-09-14T14:30:17;19.30;99.90
21622;DHT22;10973;46.706;12.340;2022-09-14T14:32:53;19.20;99.90
21622;DHT22;10973;46.706;12.340;2022-09-14T14:35:25;19.20;99.90
21622;DHT22;10973;46.706;12.340;2022-09-14T14:37:55;19.20;99.90
21622;DHT22;10973;46.706;12.340;2022-09-14T14:40:24;19.20;99.90
21622;DHT22;10973;46.706;12.340;2022-09-14T14:42:53;19.20;99.90
21622;DHT22;10973;46.706;12.340;2022-09-14T14:45:23;19.10;99.90
21622;DHT22;10973;46.706;12.340;2022-09-14T14:47:53;19.10;99.90
21622;DHT22;10973;46.706;12.340;2022-09-14T14:50:26;19.20;99.90
21622;DHT22;10973;46.706;12.340;2022-09-14T14:52:56;19.10;99.90
21622;DHT22;10973;46.706;12.340;2022-09-14T14:55:23;19.10;99.90
21622;DHT22;10973;46.706;12.340;2022-09-14T14:57:52;19.00;99.90
21622;DHT22;10973;46.706;12.340;2022-09-14T15:00:22;19.10;99.90
21622;DHT22;10973;46.706;12.340;2022-09-14T15:02:50;19.00;99.90
21622;DHT22;10973;46.706;12.340;2022-09-14T15:05:18;19.00;99.90
21622;DHT22;10973;46.706;12.340;2022-09-14T15:07:46;19.00;99.90
21622;DHT22;10973;46.706;12.340;2022-09-14T15:10:15;19.00;99.90
21622;DHT22;10973;46.706;12.340;2022-09-14T15:12:43;18.90;99.90
21622;DHT22;10973;46.706;12.340;2022-09-14T15:15:13;18.90;99.90
21622;DHT22;10973;46.706;12.340;2022-09-14T15:17:42;18.90;99.90
21622;DHT22;10973;46.706;12.340;2022-09-14T15:20:10;18.80;99.90
21622;DHT22;10973;46.706;12.340;2022-09-14T15:22:39;18.90;99.90
21622;DHT22;10973;46.706;12.340;2022-09-14T15:25:07;18.80;99.90
21622;DHT22;10973;46.706;12.340;2022-09-14T15:27:36;18.90;99.90
21622;DHT22;10973;46.706;12.340;2022-09-14T15:30:04;18.90;99.90
21622;DHT22;10973;46.706;12.340;2022-09-14T15:32:33;18.90;99.90
21622;DHT22;10973;46.706;12.340;2022-09-14T15:35:00;18.90;99.90
21622;DHT22;10973;46.706;12.340;2022-09-14T15:37:28;18.90;99.90
21622;DHT22;10973;46.706;12.340;2022-09-14T15:39:55;18.90;99.90
21622;DHT22;10973;46.706;12.340;2022-09-14T15:42:22;19.00;99.90
21622;DHT22;10973;46.706;12.340;2022-09-14T15:44:50;19.50;99.90
21622;DHT22;10973;46.706;12.340;2022-09-14T15:47:17;18.90;99.90
21622;DHT22;10973;46.706;12.340;2022-09-14T15:49:44;18.90;99.90
21622;DHT22;10973;46.706;12.340;2022-09-14T15:52:12;18.80;99.90
21622;DHT22;10973;46.706;12.340;2022-09-14T15:54:39;18.80;99.90
21622;DHT22;10973;46.706;12.340;2022-09-14T15:57:09;18.80;99.90
21622;DHT22;10973;46.706;12.340;2022-09-14T15:59:37;18.70;99.90
21622;DHT22;10973;46.706;12.340;2022-09-14T16:02:05;18.70;99.90
21622;DHT22;10973;46.706;12.340;2022-09-14T16:04:36;18.60;99.90
21622;DHT22;10973;46.706;12.340;2022-09-14T16:07:06;18.60;99.90
21622;DHT22;10973;46.706;12.340;2022-09-14T16:09:35;18.60;99.90
21622;DHT22;10973;46.706;12.340;2022-09-14T16:12:04;18.50;99.90
21622;DHT22;10973;46.706;12.340;2022-09-14T16:14:32;18.50;99.90
21622;DHT22;10973;46.706;12.340;2022-09-14T16:17:00;18.50;99.90
21622;DHT22;10973;46.706;12.340;2022-09-14T16:19:28;18.40;99.90
21622;DHT22;10973;46.706;12.340;2022-09-14T16:21:55;18.40;99.90
21622;DHT22;10973;46.706;12.340;2022-09-14T16:24:23;18.40;99.90
21622;DHT22;10973;46.706;12.340;2022-09-14T16:26:52;18.30;99.90
21622;DHT22;10973;46.706;12.340;2022-09-14T16:29:21;18.30;99.90
21622;DHT22;10973;46.706;12.340;2022-09-14T16:31:48;18.30;99.90
21622;DHT22;10973;46.706;12.340;2022-09-14T16:36:52;18.30;99.90
21622;DHT22;10973;46.706;12.340;2022-09-14T16:39:25;18.30;99.90
21622;DHT22;10973;46.706;12.340;2022-09-14T16:41:54;18.20;99.90
21622;DHT22;10973;46.706;12.340;2022-09-14T16:44:23;18.20;99.90
21622;DHT22;10973;46.706;12.340;2022-09-14T16:46:55;18.10;99.90
21622;DHT22;10973;46.706;12.340;2022-09-14T16:49:24;18.10;99.90
21622;DHT22;10973;46.706;12.340;2022-09-14T16:51:55;18.10;99.90
21622;DHT22;10973;46.706;12.340;2022-09-14T16:54:28;18.10;99.90
21622;DHT22;10973;46.706;12.340;2022-09-14T16:56:56;18.00;99.90
21622;DHT22;10973;46.706;12.340;2022-09-14T16:59:24;18.00;99.90
21622;DHT22;10973;46.706;12.340;2022-09-14T17:02:10;18.10;99.90
21622;DHT22;10973;46.706;12.340;2022-09-14T17:04:37;18.00;99.90
21622;DHT22;10973;46.706;12.340;2022-09-14T17:07:05;18.00;99.90
21622;DHT22;10973;46.706;12.340;2022-09-14T17:09:38;18.00;99.90
21622;DHT22;10973;46.706;12.340;2022-09-14T17:12:13;17.90;99.90
21622;DHT22;10973;46.706;12.340;2022-09-14T17:14:44;17.90;99.90
21622;DHT22;10973;46.706;12.340;2022-09-14T17:17:11;17.90;99.90
21622;DHT22;10973;46.706;12.340;2022-09-14T17:19:38;17.90;99.90
21622;DHT22;10973;46.706;12.340;2022-09-14T17:22:09;17.90;99.90
21622;DHT22;10973;46.706;12.340;2022-09-14T17:24:36;17.80;99.90
21622;DHT22;10973;46.706;12.340;2022-09-14T17:27:04;17.80;99.90
21622;DHT22;10973;46.706;12.340;2022-09-14T17:29:31;17.80;99.90
21622;DHT22;10973;46.706;12.340;2022-09-14T17:31:58;17.80;99.90
21622;DHT22;10973;46.706;12.340;2022-09-14T17:34:26;17.70;99.90
21622;DHT22;10973;46.706;12.340;2022-09-14T17:36:53;17.70;99.90
21622;DHT22;10973;46.706;12.340;2022-09-14T17:39:24;17.70;99.90
21622;DHT22;10973;46.706;12.340;2022-09-14T17:41:51;17.70;99.90
21622;DHT22;10973;46.706;12.340;2022-09-14T17:44:19;17.70;99.90
21622;DHT22;10973;46.706;12.340;2022-09-14T17:46:46;17.70;99.90
21622;DHT22;10973;46.706;12.340;2022-09-14T17:49:20;17.70;99.90
21622;DHT22;10973;46.706;12.340;2022-09-14T17:51:49;17.50;99.90
21622;DHT22;10973;46.706;12.340;2022-09-14T17:54:17;17.70;99.90
21622;DHT22;10973;46.706;12.340;2022-09-14T17:56:45;17.60;99.90
21622;DHT22;10973;46.706;12.340;2022-09-14T17:59:15;17.40;99.90
21622;DHT22;10973;46.706;12.340;2022-09-14T18:01:46;17.60;99.90
21622;DHT22;10973;46.706;12.340;2022-09-14T18:04:15;17.40;99.90
21622;DHT22;10973;46.706;12.340;2022-09-14T18:06:46;17.60;99.90
21622;DHT22;10973;46.706;12.340;2022-09-14T18:09:20;17.50;99.90
21622;DHT22;10973;46.706;12.340;2022-09-14T18:11:54;17.60;99.90
21622;DHT22;10973;46.706;12.340;2022-09-14T18:14:23;17.50;99.90
21622;DHT22;10973;46.706;12.340;2022-09-14T18:16:50;17.50;99.90
21622;DHT22;10973;46.706;12.340;2022-09-14T18:19:18;16.80;99.90
21622;DHT22;10973;46.706;12.340;2022-09-14T18:21:45;17.50;99.90
21622;DHT22;10973;46.706;12.340;2022-09-14T18:24:18;18.10;99.90
21622;DHT22;10973;46.706;12.340;2022-09-14T18:26:45;17.60;99.90
21622;DHT22;10973;46.706;12.340;2022-09-14T18:29:14;17.50;99.90
21622;DHT22;10973;46.706;12.340;2022-09-14T18:31:43;17.60;99.90
21622;DHT22;10973;46.706;12.340;2022-09-14T18:34:10;17.50;99.90
21622;DHT22;10973;46.706;12.340;2022-09-14T18:36:37;17.50;99.90
21622;DHT22;10973;46.706;12.340;2022-09-14T18:39:05;18.00;99.90
21622;DHT22;10973;46.706;12.340;2022-09-14T18:41:32;17.40;99.90
21622;DHT22;10973;46.706;12.340;2022-09-14T18:44:00;17.50;99.90
21622;DHT22;10973;46.706;12.340;2022-09-14T18:46:29;17.50;99.90
21622;DHT22;10973;46.706;12.340;2022-09-14T18:48:59;17.50;99.90
21622;DHT22;10973;46.706;12.340;2022-09-14T18:51:29;17.50;99.90
21622;DHT22;10973;46.706;12.340;2022-09-14T18:53:59;17.40;99.90
21622;DHT22;10973;46.706;12.340;2022-09-14T18:56:28;17.50;99.90
21622;DHT22;10973;46.706;12.340;2022-09-14T18:58:56;17.40;99.90
21622;DHT22;10973;46.706;12.340;2022-09-14T19:01:24;17.40;99.90
21622;DHT22;10973;46.706;12.340;2022-09-14T19:39:05;17.10;99.90